createdAt,value
2022-10-28T00:00:17.665Z,0.00
2022-10-28T00:01:18.360Z,0.00
2022-10-28T00:02:17.934Z,0.00
2022-10-28T00:03:17.588Z,0.00
2022-10-28T00:04:17.713Z,0.00
2022-10-28T00:05:17.568Z,0.00
2022-10-28T00:06:17.554Z,0.00
2022-10-28T00:07:17.533Z,0.00
2022-10-28T00:08:21.368Z,0.00
2022-10-28T00:09:17.527Z,0.00
2022-10-28T00:10:17.496Z,0.00
2022-10-28T00:11:17.495Z,0.00
2022-10-28T00:12:17.495Z,0.00
2022-10-28T00:13:17.767Z,0.00
2022-10-28T00:14:17.478Z,0.00
2022-10-28T00:15:17.438Z,0.00
2022-10-28T00:16:17.428Z,0.00
2022-10-28T00:17:17.450Z,0.00
2022-10-28T00:18:17.680Z,0.00
2022-10-28T00:19:17.403Z,0.00
2022-10-28T00:20:17.380Z,0.00
2022-10-28T00:21:17.382Z,0.00
2022-10-28T00:22:17.342Z,0.00
2022-10-28T00:23:17.332Z,0.00
2022-10-28T00:24:17.590Z,0.00
2022-10-28T00:25:17.326Z,0.00
2022-10-28T00:26:17.314Z,0.00
2022-10-28T00:27:17.302Z,0.00
2022-10-28T00:28:21.496Z,0.00
2022-10-28T00:29:17.532Z,0.00
2022-10-28T00:30:17.587Z,0.00
2022-10-28T00:31:17.273Z,0.00
2022-10-28T00:32:17.214Z,0.00
2022-10-28T00:33:17.202Z,0.00
2022-10-28T00:34:17.217Z,0.00
2022-10-28T00:35:17.177Z,0.00
2022-10-28T00:36:17.669Z,0.00
2022-10-28T00:37:17.171Z,0.00
2022-10-28T00:38:17.193Z,0.00
2022-10-28T00:39:17.124Z,0.00
2022-10-28T00:40:17.118Z,0.00
2022-10-28T00:41:17.099Z,0.00
2022-10-28T00:42:17.098Z,0.00
2022-10-28T00:43:17.161Z,0.00
2022-10-28T00:44:17.087Z,0.00
2022-10-28T00:45:17.640Z,0.00
2022-10-28T00:46:17.083Z,0.00
2022-10-28T00:47:20.963Z,0.00
2022-10-28T00:48:17.020Z,0.00
2022-10-28T00:49:17.380Z,0.00
2022-10-28T00:50:17.252Z,0.00
2022-10-28T00:51:21.073Z,0.00
2022-10-28T00:52:16.981Z,0.00
2022-10-28T00:53:16.969Z,0.00
2022-10-28T00:54:16.936Z,0.00
2022-10-28T00:55:17.623Z,0.00
2022-10-28T00:56:20.876Z,0.00
2022-10-28T00:57:16.913Z,0.00
2022-10-28T00:58:16.955Z,0.00
2022-10-28T00:59:16.864Z,0.00
2022-10-28T01:00:16.974Z,0.00
2022-10-28T01:01:16.892Z,0.00
2022-10-28T01:02:16.960Z,0.00
2022-10-28T01:03:16.828Z,0.00
2022-10-28T01:04:16.812Z,0.00
2022-10-28T01:05:17.359Z,0.00
2022-10-28T01:06:16.798Z,0.00
2022-10-28T01:07:17.616Z,0.00
2022-10-28T01:08:16.761Z,0.00
2022-10-28T01:09:16.795Z,0.00
2022-10-28T01:10:16.747Z,0.00
2022-10-28T01:11:17.529Z,0.00
2022-10-28T01:12:16.748Z,0.00
2022-10-28T01:13:16.700Z,0.00
2022-10-28T01:14:16.701Z,0.00
2022-10-28T01:15:16.671Z,0.00
2022-10-28T01:16:16.653Z,0.00
2022-10-28T01:17:16.899Z,0.00
2022-10-28T01:18:17.700Z,0.00
2022-10-28T01:19:16.628Z,0.00
2022-10-28T01:20:16.631Z,0.00
2022-10-28T01:21:16.592Z,0.00
2022-10-28T01:22:16.577Z,0.00
2022-10-28T01:23:16.922Z,0.00
2022-10-28T01:24:16.573Z,0.00
2022-10-28T01:25:16.545Z,0.00
2022-10-28T01:26:16.537Z,0.00
2022-10-28T01:27:16.508Z,0.00
2022-10-28T01:28:16.515Z,0.00
2022-10-28T01:29:16.496Z,0.00
2022-10-28T01:30:16.505Z,0.00
2022-10-28T01:31:16.725Z,0.00
2022-10-28T01:32:16.455Z,0.00
2022-10-28T01:33:17.314Z,0.00
2022-10-28T01:34:17.148Z,0.00
2022-10-28T01:35:17.003Z,0.00
2022-10-28T01:36:16.407Z,0.00
2022-10-28T01:37:20.237Z,0.00
2022-10-28T01:38:16.412Z,0.00
2022-10-28T01:39:16.365Z,0.00
2022-10-28T01:40:16.338Z,0.00
2022-10-28T01:41:16.329Z,0.00
2022-10-28T01:42:16.320Z,0.00
2022-10-28T01:43:16.309Z,0.00
2022-10-28T01:44:16.291Z,0.00
2022-10-28T01:45:16.287Z,0.00
2022-10-28T01:46:16.383Z,0.00
2022-10-28T01:47:16.280Z,0.00
2022-10-28T01:48:16.476Z,0.00
2022-10-28T01:49:20.112Z,0.00
2022-10-28T01:50:16.782Z,0.00
2022-10-28T01:51:16.223Z,0.00
2022-10-28T01:52:16.204Z,0.00
2022-10-28T01:53:16.173Z,0.00
2022-10-28T01:54:16.156Z,0.00
2022-10-28T01:55:16.163Z,0.00
2022-10-28T01:56:16.139Z,0.00
2022-10-28T01:57:16.255Z,0.00
2022-10-28T01:58:16.114Z,0.00
2022-10-28T01:59:16.085Z,0.00
2022-10-28T02:00:16.557Z,0.00
2022-10-28T02:01:16.198Z,0.00
2022-10-28T02:02:20.146Z,0.00
2022-10-28T02:03:16.079Z,0.00
2022-10-28T02:04:16.101Z,0.00
2022-10-28T02:05:16.030Z,0.00
2022-10-28T02:06:15.997Z,0.00
2022-10-28T02:07:15.997Z,0.00
2022-10-28T02:08:15.993Z,0.00
2022-10-28T02:09:19.739Z,0.00
2022-10-28T02:10:15.976Z,0.00
2022-10-28T02:11:15.939Z,0.00
2022-10-28T02:12:15.952Z,0.00
2022-10-28T02:13:15.912Z,0.00
2022-10-28T02:14:16.174Z,0.00
2022-10-28T02:15:16.794Z,0.00
2022-10-28T02:16:15.880Z,0.00
2022-10-28T02:17:19.732Z,0.00
2022-10-28T02:18:15.918Z,0.00
2022-10-28T02:19:15.841Z,0.00
2022-10-28T02:20:15.833Z,0.00
2022-10-28T02:21:15.913Z,0.00
2022-10-28T02:22:15.805Z,0.00
2022-10-28T02:23:16.614Z,0.00
2022-10-28T02:24:15.774Z,0.00
2022-10-28T02:25:15.764Z,0.00
2022-10-28T02:26:15.755Z,0.00
2022-10-28T02:27:15.835Z,0.00
2022-10-28T02:28:15.945Z,0.00
2022-10-28T02:29:15.715Z,0.00
2022-10-28T02:30:15.705Z,0.00
2022-10-28T02:31:15.676Z,0.00
2022-10-28T02:32:15.676Z,0.00
2022-10-28T02:33:15.707Z,0.00
2022-10-28T02:34:15.644Z,0.00
2022-10-28T02:35:15.637Z,0.00
2022-10-28T02:36:16.105Z,0.00
2022-10-28T02:37:15.597Z,0.00
2022-10-28T02:38:15.929Z,0.00
2022-10-28T02:39:15.610Z,0.00
2022-10-28T02:40:15.568Z,0.00
2022-10-28T02:41:16.521Z,0.00
2022-10-28T02:42:15.819Z,0.00
2022-10-28T02:43:15.527Z,0.00
2022-10-28T02:44:15.519Z,0.00
2022-10-28T02:45:15.626Z,0.00
2022-10-28T02:46:15.504Z,0.00
2022-10-28T02:47:15.546Z,0.00
2022-10-28T02:48:16.239Z,0.00
2022-10-28T02:49:15.472Z,0.00
2022-10-28T02:50:15.455Z,0.00
2022-10-28T02:51:15.538Z,0.00
2022-10-28T02:52:15.406Z,0.00
2022-10-28T02:53:15.435Z,0.00
2022-10-28T02:54:15.386Z,0.00
2022-10-28T02:55:16.331Z,0.00
2022-10-28T02:56:15.369Z,0.00
2022-10-28T02:57:15.379Z,0.00
2022-10-28T02:58:15.348Z,0.00
2022-10-28T02:59:15.326Z,0.00
2022-10-28T03:00:15.309Z,0.00
2022-10-28T03:01:15.686Z,0.00
2022-10-28T03:02:15.325Z,0.00
2022-10-28T03:03:15.535Z,0.00
2022-10-28T03:04:15.270Z,0.00
2022-10-28T03:05:15.246Z,0.00
2022-10-28T03:06:15.279Z,0.00
2022-10-28T03:07:15.219Z,0.00
2022-10-28T03:08:15.269Z,0.00
2022-10-28T03:09:15.311Z,0.00
2022-10-28T03:10:15.182Z,0.00
2022-10-28T03:11:15.252Z,0.00
2022-10-28T03:12:15.151Z,0.00
2022-10-28T03:13:15.138Z,0.00
2022-10-28T03:14:15.555Z,0.00
2022-10-28T03:15:15.512Z,0.00
2022-10-28T03:16:15.114Z,0.00
2022-10-28T03:17:15.386Z,0.00
2022-10-28T03:18:15.073Z,0.00
2022-10-28T03:19:15.361Z,0.00
2022-10-28T03:20:15.052Z,0.00
2022-10-28T03:21:15.064Z,0.00
2022-10-28T03:22:15.033Z,0.00
2022-10-28T03:23:15.004Z,0.00
2022-10-28T03:24:15.494Z,0.00
2022-10-28T03:25:15.525Z,0.00
2022-10-28T03:26:14.975Z,0.00
2022-10-28T03:27:18.900Z,0.00
2022-10-28T03:28:14.957Z,0.00
2022-10-28T03:29:14.926Z,0.00
2022-10-28T03:30:14.917Z,0.00
2022-10-28T03:31:14.907Z,0.00
2022-10-28T03:32:15.267Z,0.00
2022-10-28T03:33:14.927Z,0.00
2022-10-28T03:34:14.869Z,0.00
2022-10-28T03:35:14.887Z,0.00
2022-10-28T03:36:14.847Z,0.00
2022-10-28T03:37:14.844Z,0.00
2022-10-28T03:38:14.827Z,0.00
2022-10-28T03:39:14.912Z,0.00
2022-10-28T03:40:14.800Z,0.00
2022-10-28T03:41:14.783Z,0.00
2022-10-28T03:42:14.921Z,0.00
2022-10-28T03:43:14.907Z,0.00
2022-10-28T03:44:14.744Z,0.00
2022-10-28T03:45:14.842Z,0.00
2022-10-28T03:46:14.721Z,0.00
2022-10-28T03:47:14.705Z,0.00
2022-10-28T03:48:15.476Z,0.00
2022-10-28T03:49:14.804Z,0.00
2022-10-28T03:50:14.674Z,0.00
2022-10-28T03:51:14.764Z,0.00
2022-10-28T03:52:14.669Z,0.00
2022-10-28T03:53:14.621Z,0.00
2022-10-28T03:54:15.472Z,0.00
2022-10-28T03:55:14.774Z,0.00
2022-10-28T03:56:15.415Z,0.00
2022-10-28T03:57:14.615Z,0.00
2022-10-28T03:58:14.673Z,0.00
2022-10-28T03:59:17.770Z,0.00
2022-10-28T04:00:15.556Z,0.00
2022-10-28T04:01:14.606Z,0.00
2022-10-28T04:02:14.702Z,0.00
2022-10-28T04:03:14.548Z,0.00
2022-10-28T04:04:14.740Z,0.00
2022-10-28T04:05:14.471Z,0.00
2022-10-28T04:06:14.738Z,0.00
2022-10-28T04:07:14.708Z,0.00
2022-10-28T04:08:14.445Z,0.00
2022-10-28T04:09:14.579Z,0.00
2022-10-28T04:10:14.417Z,0.00
2022-10-28T04:11:14.671Z,0.00
2022-10-28T04:12:14.411Z,0.00
2022-10-28T04:13:14.384Z,0.00
2022-10-28T04:14:14.364Z,0.00
2022-10-28T04:15:15.034Z,0.00
2022-10-28T04:16:14.325Z,0.00
2022-10-28T04:17:14.325Z,0.00
2022-10-28T04:18:14.309Z,0.00
2022-10-28T04:19:14.328Z,0.00
2022-10-28T04:20:15.104Z,0.00
2022-10-28T04:21:14.385Z,0.00
2022-10-28T04:22:15.212Z,0.00
2022-10-28T04:23:14.270Z,0.00
2022-10-28T04:24:14.237Z,0.00
2022-10-28T04:26:14.201Z,0.00
2022-10-28T04:27:14.790Z,0.00
2022-10-28T04:28:14.177Z,0.00
2022-10-28T04:29:14.191Z,0.00
2022-10-28T04:30:14.157Z,0.00
2022-10-28T04:31:14.896Z,0.00
2022-10-28T04:32:14.661Z,0.00
2022-10-28T04:33:14.142Z,0.00
2022-10-28T04:34:14.414Z,0.00
2022-10-28T04:35:14.118Z,0.00
2022-10-28T04:36:14.338Z,0.00
2022-10-28T04:37:18.331Z,0.00
2022-10-28T04:38:15.558Z,0.00
2022-10-28T04:39:14.040Z,0.00
2022-10-28T04:40:14.049Z,0.00
2022-10-28T04:41:14.841Z,0.00
2022-10-28T04:42:14.020Z,0.00
2022-10-28T04:43:14.582Z,0.00
2022-10-28T04:44:14.386Z,0.00
2022-10-28T04:45:14.307Z,0.00
2022-10-28T04:46:13.936Z,0.00
2022-10-28T04:47:13.942Z,0.00
2022-10-28T04:48:13.917Z,0.00
2022-10-28T04:49:13.999Z,0.00
2022-10-28T04:50:13.972Z,0.00
2022-10-28T04:51:13.879Z,0.00
2022-10-28T04:52:15.735Z,0.00
2022-10-28T04:53:13.859Z,0.00
2022-10-28T04:54:13.856Z,0.00
2022-10-28T04:55:13.829Z,0.00
2022-10-28T04:56:14.031Z,0.00
2022-10-28T04:57:14.193Z,0.00
2022-10-28T04:58:13.880Z,0.00
2022-10-28T04:59:13.805Z,0.00
2022-10-28T05:00:14.262Z,0.00
2022-10-28T05:01:13.877Z,0.00
2022-10-28T05:02:13.954Z,0.00
2022-10-28T05:03:13.741Z,0.00
2022-10-28T05:04:13.730Z,0.00
2022-10-28T05:05:13.867Z,0.00
2022-10-28T05:06:13.684Z,0.00
2022-10-28T05:07:14.857Z,0.00
2022-10-28T05:08:13.954Z,0.00
2022-10-28T05:09:14.298Z,0.00
2022-10-28T05:10:13.764Z,0.00
2022-10-28T05:11:13.737Z,0.00
2022-10-28T05:12:14.568Z,0.00
2022-10-28T05:13:13.606Z,0.00
2022-10-28T05:14:14.453Z,0.00
2022-10-28T05:15:14.527Z,0.00
2022-10-28T05:16:13.559Z,0.00
2022-10-28T05:17:13.556Z,0.00
2022-10-28T05:18:14.490Z,0.00
2022-10-28T05:19:14.229Z,0.00
2022-10-28T05:20:14.035Z,0.00
2022-10-28T05:21:13.500Z,0.00
2022-10-28T05:22:14.149Z,0.00
2022-10-28T05:23:14.290Z,0.00
2022-10-28T05:24:13.501Z,0.00
2022-10-28T05:25:14.261Z,0.00
2022-10-28T05:26:13.819Z,0.00
2022-10-28T05:27:13.428Z,0.00
2022-10-28T05:28:13.408Z,0.00
2022-10-28T05:29:13.439Z,0.00
2022-10-28T05:30:13.403Z,0.00
2022-10-28T05:31:13.400Z,0.00
2022-10-28T05:32:13.407Z,0.00
2022-10-28T05:33:13.421Z,0.00
2022-10-28T05:34:13.401Z,0.00
2022-10-28T05:35:13.396Z,0.00
2022-10-28T05:36:13.306Z,0.00
2022-10-28T05:37:13.305Z,0.00
2022-10-28T05:38:13.390Z,0.00
2022-10-28T05:39:13.277Z,1.00
2022-10-28T05:40:13.388Z,1.00
2022-10-28T05:41:13.386Z,1.00
2022-10-28T05:42:13.216Z,1.00
2022-10-28T05:43:13.219Z,0.00
2022-10-28T05:44:13.438Z,0.00
2022-10-28T05:45:13.389Z,2.00
2022-10-28T05:46:13.181Z,2.00
2022-10-28T05:47:16.981Z,2.00
2022-10-28T05:48:13.225Z,2.00
2022-10-28T05:49:13.129Z,4.00
2022-10-28T05:50:13.156Z,0.00
2022-10-28T05:51:13.127Z,4.00
2022-10-28T05:52:13.382Z,7.00
2022-10-28T05:53:13.192Z,2.00
2022-10-28T05:54:13.395Z,6.00
2022-10-28T05:55:13.393Z,5.00
2022-10-28T05:56:13.384Z,13.00
2022-10-28T05:57:13.374Z,15.00
2022-10-28T05:58:13.384Z,13.00
2022-10-28T05:59:13.002Z,22.00
2022-10-28T06:00:13.123Z,22.00
2022-10-28T06:01:13.445Z,31.00
2022-10-28T06:02:12.994Z,37.00
2022-10-28T06:03:13.449Z,36.00
2022-10-28T06:04:13.258Z,45.00
2022-10-28T06:05:13.105Z,46.00
2022-10-28T06:06:12.914Z,59.00
2022-10-28T06:07:13.378Z,75.00
2022-10-28T06:08:13.392Z,82.00
2022-10-28T06:09:13.368Z,96.00
2022-10-28T06:10:13.840Z,112.00
2022-10-28T06:11:11.944Z,128.00
2022-10-28T06:12:11.467Z,142.00
2022-10-28T06:13:11.296Z,157.00
2022-10-28T06:14:11.518Z,174.00
2022-10-28T06:15:11.498Z,191.00
2022-10-28T06:16:11.849Z,215.00
2022-10-28T06:17:11.699Z,252.00
2022-10-28T06:18:15.414Z,273.00
2022-10-28T06:19:12.630Z,300.00
2022-10-28T06:20:11.639Z,344.00
2022-10-28T06:21:12.155Z,371.00
2022-10-28T06:22:11.316Z,410.00
2022-10-28T06:23:12.157Z,449.00
2022-10-28T06:24:12.827Z,477.00
2022-10-28T06:25:11.762Z,517.00
2022-10-28T06:26:11.513Z,554.00
2022-10-28T06:27:11.234Z,594.00
2022-10-28T06:28:11.408Z,640.00
2022-10-28T06:29:11.611Z,682.00
2022-10-28T06:30:11.539Z,722.00
2022-10-28T06:31:11.849Z,766.00
2022-10-28T06:32:11.848Z,805.00
2022-10-28T06:33:11.410Z,854.00
2022-10-28T06:34:11.417Z,903.00
2022-10-28T06:35:11.432Z,939.00
2022-10-28T06:36:11.979Z,992.00
2022-10-28T06:37:12.077Z,1046.00
2022-10-28T06:38:11.937Z,1081.00
2022-10-28T06:39:10.988Z,1135.00
2022-10-28T06:40:11.042Z,1174.00
2022-10-28T06:41:11.049Z,1203.00
2022-10-28T06:42:11.072Z,1248.00
2022-10-28T06:43:11.128Z,1293.00
2022-10-28T06:44:11.125Z,1331.00
2022-10-28T06:45:11.126Z,1367.00
2022-10-28T06:46:11.177Z,1393.00
2022-10-28T06:47:12.403Z,1423.00
2022-10-28T06:48:12.514Z,1479.00
2022-10-28T06:49:12.441Z,1526.00
2022-10-28T06:50:12.398Z,1578.00
2022-10-28T06:51:12.638Z,1654.00
2022-10-28T06:52:13.708Z,1710.00
2022-10-28T06:53:12.418Z,1779.00
2022-10-28T06:54:12.528Z,1822.00
2022-10-28T06:55:12.609Z,1880.00
2022-10-28T06:56:12.732Z,1941.00
2022-10-28T06:57:12.963Z,1995.00
2022-10-28T06:58:12.630Z,2063.00
2022-10-28T06:59:12.404Z,2134.00
2022-10-28T07:00:13.193Z,2222.00
2022-10-28T07:01:12.671Z,2307.00
2022-10-28T07:02:12.878Z,2376.00
2022-10-28T07:03:12.498Z,2471.00
2022-10-28T07:04:12.403Z,2593.00
2022-10-28T07:05:12.343Z,2717.00
2022-10-28T07:07:12.601Z,2796.00
2022-10-28T07:08:12.945Z,2862.00
2022-10-28T07:09:12.138Z,2968.00
2022-10-28T07:10:12.968Z,3078.00
2022-10-28T07:11:12.493Z,3245.00
2022-10-28T07:12:12.764Z,3384.00
2022-10-28T07:13:12.191Z,3471.00
2022-10-28T07:14:12.104Z,3533.00
2022-10-28T07:15:12.195Z,3575.00
2022-10-28T07:16:12.793Z,3584.00
2022-10-28T07:17:12.457Z,3541.00
2022-10-28T07:18:12.106Z,3552.00
2022-10-28T07:19:12.402Z,3476.00
2022-10-28T07:20:12.359Z,3412.00
2022-10-28T07:21:12.940Z,3447.00
2022-10-28T07:22:12.770Z,3500.00
2022-10-28T07:23:12.925Z,3597.00
2022-10-28T07:24:12.423Z,3730.00
2022-10-28T07:25:12.756Z,3829.00
2022-10-28T07:26:12.745Z,3994.00
2022-10-28T07:27:11.925Z,4097.00
2022-10-28T07:28:12.715Z,4185.00
2022-10-28T07:29:12.199Z,4251.00
2022-10-28T07:30:12.357Z,4177.00
2022-10-28T07:31:12.271Z,4010.00
2022-10-28T07:32:12.358Z,3941.00
2022-10-28T07:33:12.791Z,3964.00
2022-10-28T07:34:12.578Z,4039.00
2022-10-28T07:35:11.811Z,4047.00
2022-10-28T07:36:11.807Z,4099.00
2022-10-28T07:37:12.313Z,4223.00
2022-10-28T07:38:11.860Z,4386.00
2022-10-28T07:39:11.782Z,4594.00
2022-10-28T07:40:11.785Z,4835.00
2022-10-28T07:41:11.920Z,4939.00
2022-10-28T07:42:11.927Z,5031.00
2022-10-28T07:43:11.755Z,4978.00
2022-10-28T07:44:11.966Z,4992.00
2022-10-28T07:45:11.987Z,5048.00
2022-10-28T07:46:12.010Z,5090.00
2022-10-28T07:47:11.667Z,5110.00
2022-10-28T07:48:11.858Z,5261.00
2022-10-28T07:49:12.121Z,5455.00
2022-10-28T07:50:12.074Z,5569.00
2022-10-28T07:51:12.136Z,5646.00
2022-10-28T07:52:12.138Z,5719.00
2022-10-28T07:53:12.047Z,5648.00
2022-10-28T07:54:13.328Z,5723.00
2022-10-28T07:55:11.928Z,5905.00
2022-10-28T07:56:12.218Z,6007.00
2022-10-28T07:57:12.141Z,6121.00
2022-10-28T07:58:11.610Z,6216.00
2022-10-28T07:59:12.456Z,6209.00
2022-10-28T08:00:12.028Z,6171.00
2022-10-28T08:01:12.269Z,6203.00
2022-10-28T08:02:12.319Z,6107.00
2022-10-28T08:03:12.000Z,6230.00
2022-10-28T08:04:11.448Z,6330.00
2022-10-28T08:05:11.577Z,6410.00
2022-10-28T08:06:11.587Z,6473.00
2022-10-28T08:07:12.366Z,6522.00
2022-10-28T08:08:12.325Z,6514.00
2022-10-28T08:09:11.884Z,6593.00
2022-10-28T08:10:11.969Z,6611.00
2022-10-28T08:11:11.344Z,6615.00
2022-10-28T08:12:12.258Z,6578.00
2022-10-28T08:13:12.366Z,6609.00
2022-10-28T08:14:12.237Z,6646.00
2022-10-28T08:15:11.291Z,6602.00
2022-10-28T08:16:11.285Z,6604.00
2022-10-28T08:17:11.271Z,6617.00
2022-10-28T08:18:11.284Z,6636.00
2022-10-28T08:19:11.267Z,6678.00
2022-10-28T08:20:11.260Z,6736.00
2022-10-28T08:21:11.259Z,6799.00
2022-10-28T08:22:11.257Z,6766.00
2022-10-28T08:23:11.164Z,6612.00
2022-10-28T08:24:11.264Z,6400.00
2022-10-28T08:25:11.258Z,6517.00
2022-10-28T08:26:11.256Z,6640.00
2022-10-28T08:27:11.258Z,6512.00
2022-10-28T08:28:11.247Z,6756.00
2022-10-28T08:29:11.258Z,6825.00
2022-10-28T08:30:11.248Z,6791.00
2022-10-28T08:31:11.248Z,6813.00
2022-10-28T08:32:11.288Z,6811.00
2022-10-28T08:33:11.030Z,6831.00
2022-10-28T08:34:11.084Z,7124.00
2022-10-28T08:35:11.004Z,7268.00
2022-10-28T08:36:11.021Z,7139.00
2022-10-28T08:37:11.202Z,7173.00
2022-10-28T08:38:11.110Z,7199.00
2022-10-28T08:39:11.136Z,7148.00
2022-10-28T08:40:11.131Z,7146.00
2022-10-28T08:41:11.067Z,7152.00
2022-10-28T08:42:11.206Z,7139.00
2022-10-28T08:43:11.003Z,7221.00
2022-10-28T08:44:11.266Z,7202.00
2022-10-28T08:45:15.446Z,7128.00
2022-10-28T08:46:11.243Z,7271.00
2022-10-28T08:47:11.238Z,7377.00
2022-10-28T08:48:11.255Z,7322.00
2022-10-28T08:49:15.120Z,7246.00
2022-10-28T08:50:10.799Z,7143.00
2022-10-28T08:51:11.242Z,7174.00
2022-10-28T08:52:10.871Z,7142.00
2022-10-28T08:53:10.901Z,7232.00
2022-10-28T08:54:10.752Z,7368.00
2022-10-28T08:55:10.871Z,7451.00
2022-10-28T08:56:11.244Z,7645.00
2022-10-28T08:57:14.516Z,7642.00
2022-10-28T08:58:11.886Z,7571.00
2022-10-28T08:59:11.228Z,7544.00
2022-10-28T09:00:10.879Z,7452.00
2022-10-28T09:01:11.317Z,7608.00
2022-10-28T09:02:10.699Z,7666.00
2022-10-28T09:03:11.009Z,7673.00
2022-10-28T09:04:10.821Z,7871.00
2022-10-28T09:05:10.871Z,7752.00
2022-10-28T09:06:10.591Z,7602.00
2022-10-28T09:07:10.611Z,7386.00
2022-10-28T09:08:10.591Z,7668.00
2022-10-28T09:09:10.581Z,7875.00
2022-10-28T09:10:10.582Z,7928.00
2022-10-28T09:11:10.584Z,8065.00
2022-10-28T09:12:11.134Z,8131.00
2022-10-28T09:13:10.722Z,8263.00
2022-10-28T09:14:10.593Z,8318.00
2022-10-28T09:15:10.610Z,8459.00
2022-10-28T09:16:13.638Z,8563.00
2022-10-28T09:17:11.864Z,8602.00
2022-10-28T09:18:10.588Z,8527.00
2022-10-28T09:19:10.596Z,8481.00
2022-10-28T09:20:10.588Z,8541.00
2022-10-28T09:21:10.549Z,8744.00
2022-10-28T09:22:10.696Z,8850.00
2022-10-28T09:23:11.331Z,8982.00
2022-10-28T09:24:10.602Z,8981.00
2022-10-28T09:25:11.414Z,9024.00
2022-10-28T09:26:10.414Z,9146.00
2022-10-28T09:27:10.600Z,9284.00
2022-10-28T09:28:10.361Z,9398.00
2022-10-28T09:29:10.483Z,9653.00
2022-10-28T09:30:11.244Z,9608.00
2022-10-28T09:31:10.602Z,9390.00
2022-10-28T09:32:10.391Z,9229.00
2022-10-28T09:33:10.593Z,9082.00
2022-10-28T09:34:10.423Z,8073.00
2022-10-28T09:35:10.225Z,8009.00
2022-10-28T09:36:10.213Z,8032.00
2022-10-28T09:37:10.243Z,8085.00
2022-10-28T09:38:10.236Z,8147.00
2022-10-28T09:39:10.245Z,8284.00
2022-10-28T09:40:10.268Z,8566.00
2022-10-28T09:41:10.178Z,9298.00
2022-10-28T09:42:10.270Z,9351.00
2022-10-28T09:43:10.230Z,10072.00
2022-10-28T09:44:10.366Z,10104.00
2022-10-28T09:45:10.386Z,10187.00
2022-10-28T09:46:10.395Z,10297.00
2022-10-28T09:47:10.422Z,10262.00
2022-10-28T09:48:10.242Z,10408.00
2022-10-28T09:49:10.439Z,10276.00
2022-10-28T09:50:10.032Z,10278.00
2022-10-28T09:51:10.271Z,10365.00
2022-10-28T09:52:13.961Z,10268.00
2022-10-28T09:53:11.193Z,10361.00
2022-10-28T09:54:10.415Z,10543.00
2022-10-28T09:55:10.565Z,10419.00
2022-10-28T09:56:10.579Z,10392.00
2022-10-28T09:57:11.542Z,10439.00
2022-10-28T09:58:10.365Z,10422.00
2022-10-28T09:59:10.214Z,10376.00
2022-10-28T10:00:10.126Z,10338.00
2022-10-28T10:01:10.157Z,10133.00
2022-10-28T10:02:10.887Z,9893.00
2022-10-28T10:03:10.823Z,9997.00
2022-10-28T10:04:09.918Z,9904.00
2022-10-28T10:05:14.608Z,9798.00
2022-10-28T10:06:10.892Z,9797.00
2022-10-28T10:07:10.135Z,9784.00
2022-10-28T10:08:09.808Z,10015.00
2022-10-28T10:09:10.580Z,10083.00
2022-10-28T10:10:10.663Z,9819.00
2022-10-28T10:11:09.871Z,9825.00
2022-10-28T10:12:10.225Z,10078.00
2022-10-28T10:13:09.781Z,10305.00
2022-10-28T10:14:12.761Z,10482.00
2022-10-28T10:15:09.896Z,10634.00
2022-10-28T10:16:10.135Z,10642.00
2022-10-28T10:17:09.852Z,10624.00
2022-10-28T10:18:10.522Z,10693.00
2022-10-28T10:19:09.655Z,10892.00
2022-10-28T10:20:09.662Z,10736.00
2022-10-28T10:21:09.674Z,10849.00
2022-10-28T10:22:09.635Z,10645.00
2022-10-28T10:23:09.714Z,10662.00
2022-10-28T10:24:09.736Z,10387.00
2022-10-28T10:25:09.584Z,10250.00
2022-10-28T10:26:12.186Z,10477.00
2022-10-28T10:27:09.805Z,10762.00
2022-10-28T10:28:09.809Z,10700.00
2022-10-28T10:29:09.540Z,10630.00
2022-10-28T10:30:09.567Z,10675.00
2022-10-28T10:31:09.526Z,10836.00
2022-10-28T10:32:09.489Z,10929.00
2022-10-28T10:33:09.889Z,11039.00
2022-10-28T10:34:09.481Z,10511.00
2022-10-28T10:35:09.993Z,10465.00
2022-10-28T10:36:09.652Z,10556.00
2022-10-28T10:37:09.430Z,10466.00
2022-10-28T10:38:09.432Z,10273.00
2022-10-28T10:39:09.433Z,9983.00
2022-10-28T10:40:09.455Z,10084.00
2022-10-28T10:41:09.469Z,10575.00
2022-10-28T10:42:09.498Z,11231.00
2022-10-28T10:43:14.082Z,11630.00
2022-10-28T10:44:09.557Z,11767.00
2022-10-28T10:45:09.560Z,11895.00
2022-10-28T10:46:09.595Z,11976.00
2022-10-28T10:47:10.280Z,11754.00
2022-10-28T10:48:09.457Z,11821.00
2022-10-28T10:49:09.652Z,12038.00
2022-10-28T10:50:09.351Z,11822.00
2022-10-28T10:51:10.196Z,11961.00
2022-10-28T10:52:09.641Z,11793.00
2022-10-28T10:53:10.176Z,10984.00
2022-10-28T10:54:09.584Z,10392.00
2022-10-28T10:55:09.591Z,10528.00
2022-10-28T10:56:09.764Z,10980.00
2022-10-28T10:57:09.170Z,11505.00
2022-10-28T10:58:09.167Z,11249.00
2022-10-28T10:59:09.148Z,11579.00
2022-10-28T11:00:09.155Z,11589.00
2022-10-28T11:01:09.171Z,11651.00
2022-10-28T11:02:09.267Z,11665.00
2022-10-28T11:03:09.120Z,11409.00
2022-10-28T11:04:09.144Z,11645.00
2022-10-28T11:05:09.127Z,10919.00
2022-10-28T11:06:23.116Z,10786.00
2022-10-28T11:07:10.855Z,10915.00
2022-10-28T11:08:09.127Z,10225.00
2022-10-28T11:09:09.056Z,10447.00
2022-10-28T11:10:09.390Z,10142.00
2022-10-28T11:11:09.080Z,9797.00
2022-10-28T11:12:09.123Z,9587.00
2022-10-28T11:13:09.132Z,9270.00
2022-10-28T11:14:08.987Z,9124.00
2022-10-28T11:15:08.947Z,9154.00
2022-10-28T11:16:09.128Z,9313.00
2022-10-28T11:17:09.123Z,9276.00
2022-10-28T11:18:09.139Z,9189.00
2022-10-28T11:19:09.123Z,9202.00
2022-10-28T11:20:08.895Z,9475.00
2022-10-28T11:21:09.037Z,9610.00
2022-10-28T11:22:09.812Z,10067.00
2022-10-28T11:23:08.912Z,10454.00
2022-10-28T11:24:09.707Z,10611.00
2022-10-28T11:25:09.116Z,10683.00
2022-10-28T11:26:09.750Z,10988.00
2022-10-28T11:27:09.007Z,11196.00
2022-10-28T11:28:09.719Z,10897.00
2022-10-28T11:29:09.089Z,10985.00
2022-10-28T11:30:09.115Z,11087.00
2022-10-28T11:31:09.056Z,11097.00
2022-10-28T11:32:08.726Z,11199.00
2022-10-28T11:33:28.964Z,10712.00
2022-10-28T11:34:10.131Z,10356.00
2022-10-28T11:35:08.781Z,10598.00
2022-10-28T11:36:08.983Z,10458.00
2022-10-28T11:37:08.846Z,10069.00
2022-10-28T11:38:08.666Z,10088.00
2022-10-28T11:39:08.706Z,9960.00
2022-10-28T11:40:08.714Z,9949.00
2022-10-28T11:41:08.727Z,9944.00
2022-10-28T11:42:08.761Z,9969.00
2022-10-28T11:43:08.576Z,10009.00
2022-10-28T11:44:08.816Z,10090.00
2022-10-28T11:45:08.567Z,10142.00
2022-10-28T11:46:08.871Z,10139.00
2022-10-28T11:47:08.542Z,10126.00
2022-10-28T11:48:08.903Z,10088.00
2022-10-28T11:49:08.911Z,10063.00
2022-10-28T11:50:08.932Z,10103.00
2022-10-28T11:51:08.579Z,10173.00
2022-10-28T11:52:08.681Z,10655.00
2022-10-28T11:53:08.472Z,10906.00
2022-10-28T11:54:08.651Z,10971.00
2022-10-28T11:55:08.603Z,10753.00
2022-10-28T11:56:09.062Z,10364.00
2022-10-28T11:57:08.424Z,10759.00
2022-10-28T11:58:09.389Z,10767.00
2022-10-28T11:59:08.962Z,10505.00
2022-10-28T12:00:09.095Z,11051.00
2022-10-28T12:01:08.913Z,11078.00
2022-10-28T12:02:08.924Z,10975.00
2022-10-28T12:03:08.680Z,10765.00
2022-10-28T12:04:08.595Z,10518.00
2022-10-28T12:05:08.990Z,10222.00
2022-10-28T12:06:08.592Z,10050.00
2022-10-28T12:07:09.227Z,9777.00
2022-10-28T12:08:09.036Z,9912.00
2022-10-28T12:10:08.539Z,10109.00
2022-10-28T12:11:08.390Z,10449.00
2022-10-28T12:12:08.238Z,10580.00
2022-10-28T12:13:08.630Z,10770.00
2022-10-28T12:14:08.601Z,10757.00
2022-10-28T12:15:08.311Z,10384.00
2022-10-28T12:16:08.234Z,10483.00
2022-10-28T12:17:08.266Z,10345.00
2022-10-28T12:18:08.183Z,10211.00
2022-10-28T12:19:08.629Z,9887.00
2022-10-28T12:20:08.116Z,9841.00
2022-10-28T12:21:08.669Z,9656.00
2022-10-28T12:22:08.616Z,9600.00
2022-10-28T12:23:08.107Z,9663.00
2022-10-28T12:24:08.138Z,9747.00
2022-10-28T12:25:08.369Z,9942.00
2022-10-28T12:26:08.856Z,9896.00
2022-10-28T12:27:08.018Z,10047.00
2022-10-28T12:28:08.279Z,9938.00
2022-10-28T12:29:08.288Z,9919.00
2022-10-28T12:30:08.128Z,9947.00
2022-10-28T12:31:08.598Z,10082.00
2022-10-28T12:32:08.209Z,10189.00
2022-10-28T12:33:08.111Z,10128.00
2022-10-28T12:34:07.931Z,10158.00
2022-10-28T12:35:07.940Z,10312.00
2022-10-28T12:36:08.720Z,10153.00
2022-10-28T12:37:07.997Z,9998.00
2022-10-28T12:38:07.871Z,9886.00